sensor_id;sensor_type;location;lat;lon;timestamp;P1;durP1;ratioP1;P2;durP2;ratioP2
62258;SDS011;48241;48.824;10.102;2023-05-13T00:00:09;4.78;;;3.35;;
62258;SDS011;48241;48.824;10.102;2023-05-13T00:02:36;3.28;;;2.97;;
62258;SDS011;48241;48.824;10.102;2023-05-13T00:05:01;5.95;;;3.35;;
62258;SDS011;48241;48.824;10.102;2023-05-13T00:07:27;3.95;;;3.13;;
62258;SDS011;48241;48.824;10.102;2023-05-13T00:09:52;3.65;;;2.75;;
62258;SDS011;48241;48.824;10.102;2023-05-13T00:12:18;4.05;;;2.95;;
62258;SDS011;48241;48.824;10.102;2023-05-13T00:14:43;5.95;;;2.83;;
62258;SDS011;48241;48.824;10.102;2023-05-13T00:17:09;5.68;;;3.22;;
62258;SDS011;48241;48.824;10.102;2023-05-13T00:19:35;4.55;;;3.13;;
62258;SDS011;48241;48.824;10.102;2023-05-13T00:22:00;4.72;;;2.60;;
62258;SDS011;48241;48.824;10.102;2023-05-13T00:24:26;4.03;;;2.60;;
62258;SDS011;48241;48.824;10.102;2023-05-13T00:26:52;4.45;;;2.60;;
62258;SDS011;48241;48.824;10.102;2023-05-13T00:29:17;7.10;;;3.17;;
62258;SDS011;48241;48.824;10.102;2023-05-13T00:31:43;5.65;;;2.92;;
62258;SDS011;48241;48.824;10.102;2023-05-13T00:34:09;4.00;;;3.03;;
62258;SDS011;48241;48.824;10.102;2023-05-13T00:36:34;3.88;;;2.80;;
62258;SDS011;48241;48.824;10.102;2023-05-13T00:39:00;3.55;;;2.67;;
62258;SDS011;48241;48.824;10.102;2023-05-13T00:41:26;4.32;;;2.63;;
62258;SDS011;48241;48.824;10.102;2023-05-13T00:43:54;3.95;;;2.95;;
62258;SDS011;48241;48.824;10.102;2023-05-13T00:46:23;3.08;;;2.72;;
62258;SDS011;48241;48.824;10.102;2023-05-13T00:48:49;6.53;;;2.70;;
62258;SDS011;48241;48.824;10.102;2023-05-13T00:51:15;6.43;;;2.50;;
62258;SDS011;48241;48.824;10.102;2023-05-13T00:53:42;5.80;;;2.78;;
62258;SDS011;48241;48.824;10.102;2023-05-13T00:56:07;6.63;;;2.55;;
62258;SDS011;48241;48.824;10.102;2023-05-13T00:58:33;3.60;;;2.60;;
62258;SDS011;48241;48.824;10.102;2023-05-13T01:01:03;3.25;;;2.58;;
62258;SDS011;48241;48.824;10.102;2023-05-13T01:03:33;4.45;;;2.67;;
62258;SDS011;48241;48.824;10.102;2023-05-13T01:06:10;8.68;;;3.47;;
62258;SDS011;48241;48.824;10.102;2023-05-13T01:11:31;3.00;;;2.70;;
62258;SDS011;48241;48.824;10.102;2023-05-13T01:14:02;4.93;;;2.72;;
62258;SDS011;48241;48.824;10.102;2023-05-13T01:19:43;3.45;;;2.88;;
62258;SDS011;48241;48.824;10.102;2023-05-13T01:22:07;5.00;;;2.63;;
62258;SDS011;48241;48.824;10.102;2023-05-13T01:24:32;4.70;;;2.33;;
62258;SDS011;48241;48.824;10.102;2023-05-13T01:26:58;3.08;;;2.78;;
62258;SDS011;48241;48.824;10.102;2023-05-13T01:29:24;4.00;;;2.45;;
62258;SDS011;48241;48.824;10.102;2023-05-13T01:31:50;3.08;;;2.70;;
62258;SDS011;48241;48.824;10.102;2023-05-13T01:34:18;4.35;;;2.75;;
62258;SDS011;48241;48.824;10.102;2023-05-13T01:36:45;3.78;;;2.47;;
62258;SDS011;48241;48.824;10.102;2023-05-13T01:39:12;2.70;;;2.50;;
62258;SDS011;48241;48.824;10.102;2023-05-13T01:41:38;4.10;;;2.90;;
62258;SDS011;48241;48.824;10.102;2023-05-13T01:44:03;5.88;;;2.97;;
62258;SDS011;48241;48.824;10.102;2023-05-13T01:46:30;6.25;;;3.42;;
62258;SDS011;48241;48.824;10.102;2023-05-13T01:48:55;4.93;;;3.38;;
62258;SDS011;48241;48.824;10.102;2023-05-13T01:51:21;5.82;;;3.08;;
62258;SDS011;48241;48.824;10.102;2023-05-13T01:53:46;4.20;;;3.10;;
62258;SDS011;48241;48.824;10.102;2023-05-13T01:56:12;4.22;;;3.30;;
62258;SDS011;48241;48.824;10.102;2023-05-13T01:58:38;4.07;;;3.13;;
62258;SDS011;48241;48.824;10.102;2023-05-13T02:01:03;3.63;;;3.28;;
62258;SDS011;48241;48.824;10.102;2023-05-13T02:03:29;3.53;;;3.22;;
62258;SDS011;48241;48.824;10.102;2023-05-13T02:05:54;4.30;;;3.03;;
62258;SDS011;48241;48.824;10.102;2023-05-13T02:08:20;3.42;;;2.80;;
62258;SDS011;48241;48.824;10.102;2023-05-13T02:10:56;5.05;;;3.30;;
62258;SDS011;48241;48.824;10.102;2023-05-13T02:13:23;3.25;;;2.90;;
62258;SDS011;48241;48.824;10.102;2023-05-13T02:15:49;3.50;;;3.20;;
62258;SDS011;48241;48.824;10.102;2023-05-13T02:18:14;4.18;;;3.30;;
62258;SDS011;48241;48.824;10.102;2023-05-13T02:20:40;3.67;;;3.22;;
62258;SDS011;48241;48.824;10.102;2023-05-13T02:23:06;4.35;;;3.28;;
62258;SDS011;48241;48.824;10.102;2023-05-13T02:25:32;4.95;;;2.97;;
62258;SDS011;48241;48.824;10.102;2023-05-13T02:27:58;5.30;;;3.45;;
62258;SDS011;48241;48.824;10.102;2023-05-13T02:30:24;3.63;;;3.00;;
62258;SDS011;48241;48.824;10.102;2023-05-13T02:32:51;5.13;;;3.10;;
62258;SDS011;48241;48.824;10.102;2023-05-13T02:35:17;5.30;;;3.50;;
62258;SDS011;48241;48.824;10.102;2023-05-13T02:37:43;5.35;;;3.55;;
62258;SDS011;48241;48.824;10.102;2023-05-13T02:40:09;3.95;;;3.38;;
62258;SDS011;48241;48.824;10.102;2023-05-13T02:42:34;6.60;;;3.20;;
62258;SDS011;48241;48.824;10.102;2023-05-13T02:45:00;4.57;;;3.33;;
62258;SDS011;48241;48.824;10.102;2023-05-13T02:47:26;4.22;;;3.13;;
62258;SDS011;48241;48.824;10.102;2023-05-13T02:49:51;4.35;;;3.08;;
62258;SDS011;48241;48.824;10.102;2023-05-13T02:52:19;3.90;;;3.50;;
62258;SDS011;48241;48.824;10.102;2023-05-13T02:54:44;6.70;;;3.70;;
62258;SDS011;48241;48.824;10.102;2023-05-13T02:57:10;5.68;;;3.72;;
62258;SDS011;48241;48.824;10.102;2023-05-13T02:59:35;4.30;;;3.90;;
62258;SDS011;48241;48.824;10.102;2023-05-13T03:02:01;4.15;;;3.75;;
62258;SDS011;48241;48.824;10.102;2023-05-13T03:04:26;4.65;;;4.10;;
62258;SDS011;48241;48.824;10.102;2023-05-13T03:06:52;3.88;;;3.50;;
62258;SDS011;48241;48.824;10.102;2023-05-13T03:09:17;4.03;;;3.45;;
62258;SDS011;48241;48.824;10.102;2023-05-13T03:11:43;5.75;;;3.35;;
62258;SDS011;48241;48.824;10.102;2023-05-13T03:14:08;4.60;;;4.00;;
62258;SDS011;48241;48.824;10.102;2023-05-13T03:16:34;3.78;;;3.35;;
62258;SDS011;48241;48.824;10.102;2023-05-13T03:19:00;5.18;;;3.40;;
62258;SDS011;48241;48.824;10.102;2023-05-13T03:21:25;4.28;;;3.88;;
62258;SDS011;48241;48.824;10.102;2023-05-13T03:23:51;5.45;;;3.47;;
62258;SDS011;48241;48.824;10.102;2023-05-13T03:26:17;4.32;;;3.92;;
62258;SDS011;48241;48.824;10.102;2023-05-13T03:28:42;5.00;;;3.85;;
62258;SDS011;48241;48.824;10.102;2023-05-13T03:31:08;3.50;;;3.20;;
62258;SDS011;48241;48.824;10.102;2023-05-13T03:33:34;5.57;;;3.63;;
62258;SDS011;48241;48.824;10.102;2023-05-13T03:35:59;4.93;;;3.38;;
62258;SDS011;48241;48.824;10.102;2023-05-13T03:38:25;4.15;;;3.60;;
62258;SDS011;48241;48.824;10.102;2023-05-13T03:40:50;8.45;;;3.88;;
62258;SDS011;48241;48.824;10.102;2023-05-13T03:43:16;4.72;;;3.83;;
62258;SDS011;48241;48.824;10.102;2023-05-13T03:45:41;5.90;;;3.92;;
62258;SDS011;48241;48.824;10.102;2023-05-13T03:48:11;5.72;;;3.65;;
62258;SDS011;48241;48.824;10.102;2023-05-13T03:50:37;6.68;;;3.80;;
62258;SDS011;48241;48.824;10.102;2023-05-13T03:53:02;5.40;;;3.63;;
62258;SDS011;48241;48.824;10.102;2023-05-13T03:55:28;5.75;;;3.80;;
62258;SDS011;48241;48.824;10.102;2023-05-13T03:57:54;4.05;;;3.65;;
62258;SDS011;48241;48.824;10.102;2023-05-13T04:00:19;4.53;;;3.45;;
62258;SDS011;48241;48.824;10.102;2023-05-13T04:02:45;4.45;;;3.70;;
62258;SDS011;48241;48.824;10.102;2023-05-13T04:05:10;3.92;;;3.53;;
62258;SDS011;48241;48.824;10.102;2023-05-13T04:07:37;7.68;;;4.47;;
62258;SDS011;48241;48.824;10.102;2023-05-13T04:10:04;5.28;;;3.42;;
62258;SDS011;48241;48.824;10.102;2023-05-13T04:12:29;3.85;;;3.53;;
62258;SDS011;48241;48.824;10.102;2023-05-13T04:14:57;5.53;;;4.10;;
62258;SDS011;48241;48.824;10.102;2023-05-13T04:17:23;4.40;;;4.00;;
62258;SDS011;48241;48.824;10.102;2023-05-13T04:19:51;4.30;;;3.90;;
62258;SDS011;48241;48.824;10.102;2023-05-13T04:22:17;4.53;;;4.13;;
62258;SDS011;48241;48.824;10.102;2023-05-13T04:24:43;5.20;;;3.75;;
62258;SDS011;48241;48.824;10.102;2023-05-13T04:27:08;5.28;;;4.07;;
62258;SDS011;48241;48.824;10.102;2023-05-13T04:29:34;4.50;;;3.95;;
62258;SDS011;48241;48.824;10.102;2023-05-13T04:31:59;5.35;;;4.07;;
62258;SDS011;48241;48.824;10.102;2023-05-13T04:34:25;5.15;;;4.00;;
62258;SDS011;48241;48.824;10.102;2023-05-13T04:36:50;6.63;;;4.00;;
62258;SDS011;48241;48.824;10.102;2023-05-13T04:39:16;5.18;;;3.88;;
62258;SDS011;48241;48.824;10.102;2023-05-13T04:41:41;5.07;;;3.70;;
62258;SDS011;48241;48.824;10.102;2023-05-13T04:44:07;5.13;;;4.07;;
62258;SDS011;48241;48.824;10.102;2023-05-13T04:46:32;6.63;;;3.88;;
62258;SDS011;48241;48.824;10.102;2023-05-13T04:48:58;4.47;;;4.07;;
62258;SDS011;48241;48.824;10.102;2023-05-13T04:51:24;4.45;;;4.00;;
62258;SDS011;48241;48.824;10.102;2023-05-13T04:53:49;5.72;;;4.15;;
62258;SDS011;48241;48.824;10.102;2023-05-13T04:56:15;3.78;;;3.33;;
62258;SDS011;48241;48.824;10.102;2023-05-13T04:58:41;4.50;;;3.55;;
62258;SDS011;48241;48.824;10.102;2023-05-13T05:01:06;4.32;;;3.72;;
62258;SDS011;48241;48.824;10.102;2023-05-13T05:03:32;6.68;;;3.97;;
62258;SDS011;48241;48.824;10.102;2023-05-13T05:05:57;5.22;;;3.90;;
62258;SDS011;48241;48.824;10.102;2023-05-13T05:08:23;5.85;;;4.00;;
62258;SDS011;48241;48.824;10.102;2023-05-13T05:10:49;4.22;;;3.83;;
62258;SDS011;48241;48.824;10.102;2023-05-13T05:13:14;4.65;;;3.83;;
62258;SDS011;48241;48.824;10.102;2023-05-13T05:15:40;4.65;;;3.60;;
62258;SDS011;48241;48.824;10.102;2023-05-13T05:18:05;5.20;;;3.80;;
62258;SDS011;48241;48.824;10.102;2023-05-13T05:20:31;4.85;;;3.50;;
62258;SDS011;48241;48.824;10.102;2023-05-13T05:22:57;3.50;;;3.20;;
62258;SDS011;48241;48.824;10.102;2023-05-13T05:25:23;4.00;;;3.58;;
62258;SDS011;48241;48.824;10.102;2023-05-13T05:27:49;4.10;;;3.42;;
62258;SDS011;48241;48.824;10.102;2023-05-13T05:30:14;3.85;;;3.33;;
62258;SDS011;48241;48.824;10.102;2023-05-13T05:32:40;4.13;;;3.53;;
62258;SDS011;48241;48.824;10.102;2023-05-13T05:35:06;6.03;;;3.70;;
62258;SDS011;48241;48.824;10.102;2023-05-13T05:37:32;4.88;;;3.85;;
62258;SDS011;48241;48.824;10.102;2023-05-13T05:39:58;4.25;;;3.80;;
62258;SDS011;48241;48.824;10.102;2023-05-13T05:42:23;4.55;;;3.33;;
62258;SDS011;48241;48.824;10.102;2023-05-13T05:44:49;4.95;;;3.60;;
62258;SDS011;48241;48.824;10.102;2023-05-13T05:47:14;5.13;;;3.83;;
62258;SDS011;48241;48.824;10.102;2023-05-13T05:49:40;6.20;;;3.35;;
62258;SDS011;48241;48.824;10.102;2023-05-13T05:52:05;5.53;;;3.30;;
62258;SDS011;48241;48.824;10.102;2023-05-13T05:54:31;4.55;;;2.97;;
62258;SDS011;48241;48.824;10.102;2023-05-13T05:56:56;4.18;;;3.10;;
62258;SDS011;48241;48.824;10.102;2023-05-13T05:59:22;3.58;;;3.28;;
62258;SDS011;48241;48.824;10.102;2023-05-13T06:01:48;4.75;;;3.05;;
62258;SDS011;48241;48.824;10.102;2023-05-13T06:04:13;3.97;;;3.58;;
62258;SDS011;48241;48.824;10.102;2023-05-13T06:06:39;4.82;;;3.75;;
62258;SDS011;48241;48.824;10.102;2023-05-13T06:09:05;5.50;;;3.70;;
62258;SDS011;48241;48.824;10.102;2023-05-13T06:11:30;3.95;;;3.63;;
62258;SDS011;48241;48.824;10.102;2023-05-13T06:13:56;5.75;;;4.22;;
62258;SDS011;48241;48.824;10.102;2023-05-13T06:16:21;4.68;;;3.60;;
62258;SDS011;48241;48.824;10.102;2023-05-13T06:18:47;5.65;;;3.33;;
62258;SDS011;48241;48.824;10.102;2023-05-13T06:21:13;4.43;;;3.85;;
62258;SDS011;48241;48.824;10.102;2023-05-13T06:23:38;5.05;;;3.22;;
62258;SDS011;48241;48.824;10.102;2023-05-13T06:26:04;4.22;;;3.22;;
62258;SDS011;48241;48.824;10.102;2023-05-13T06:28:30;4.53;;;3.22;;
62258;SDS011;48241;48.824;10.102;2023-05-13T06:30:56;4.63;;;2.53;;
62258;SDS011;48241;48.824;10.102;2023-05-13T06:33:21;3.83;;;2.60;;
62258;SDS011;48241;48.824;10.102;2023-05-13T06:35:47;4.15;;;3.15;;
62258;SDS011;48241;48.824;10.102;2023-05-13T06:38:14;4.05;;;3.10;;
62258;SDS011;48241;48.824;10.102;2023-05-13T06:40:42;4.15;;;3.42;;
62258;SDS011;48241;48.824;10.102;2023-05-13T06:43:08;4.05;;;2.90;;
62258;SDS011;48241;48.824;10.102;2023-05-13T06:45:33;7.00;;;2.92;;
62258;SDS011;48241;48.824;10.102;2023-05-13T06:47:59;4.18;;;3.28;;
62258;SDS011;48241;48.824;10.102;2023-05-13T06:50:25;6.65;;;3.13;;
62258;SDS011;48241;48.824;10.102;2023-05-13T06:52:51;3.25;;;2.80;;
62258;SDS011;48241;48.824;10.102;2023-05-13T06:55:16;3.50;;;3.08;;
62258;SDS011;48241;48.824;10.102;2023-05-13T06:57:43;3.67;;;3.03;;
62258;SDS011;48241;48.824;10.102;2023-05-13T07:00:12;4.22;;;3.28;;
62258;SDS011;48241;48.824;10.102;2023-05-13T07:02:38;4.30;;;3.00;;
62258;SDS011;48241;48.824;10.102;2023-05-13T07:05:04;3.47;;;3.10;;
62258;SDS011;48241;48.824;10.102;2023-05-13T07:07:30;4.68;;;3.13;;
62258;SDS011;48241;48.824;10.102;2023-05-13T07:09:55;3.53;;;3.22;;
62258;SDS011;48241;48.824;10.102;2023-05-13T07:12:21;5.40;;;4.90;;
62258;SDS011;48241;48.824;10.102;2023-05-13T07:14:47;4.47;;;3.50;;
62258;SDS011;48241;48.824;10.102;2023-05-13T07:17:12;4.88;;;4.40;;
62258;SDS011;48241;48.824;10.102;2023-05-13T07:19:38;5.10;;;4.25;;
62258;SDS011;48241;48.824;10.102;2023-05-13T07:22:03;4.38;;;3.80;;
62258;SDS011;48241;48.824;10.102;2023-05-13T07:24:29;5.07;;;4.57;;
62258;SDS011;48241;48.824;10.102;2023-05-13T07:26:54;4.18;;;3.20;;
62258;SDS011;48241;48.824;10.102;2023-05-13T07:29:20;4.03;;;3.20;;
62258;SDS011;48241;48.824;10.102;2023-05-13T07:31:45;4.88;;;3.33;;
62258;SDS011;48241;48.824;10.102;2023-05-13T07:34:11;2.30;;;2.00;;
62258;SDS011;48241;48.824;10.102;2023-05-13T07:36:36;3.67;;;3.38;;
62258;SDS011;48241;48.824;10.102;2023-05-13T07:39:02;5.82;;;3.97;;
62258;SDS011;48241;48.824;10.102;2023-05-13T07:41:27;3.80;;;3.50;;
62258;SDS011;48241;48.824;10.102;2023-05-13T07:43:53;4.10;;;3.53;;
62258;SDS011;48241;48.824;10.102;2023-05-13T07:46:18;4.22;;;3.17;;
62258;SDS011;48241;48.824;10.102;2023-05-13T07:48:44;6.90;;;3.65;;
62258;SDS011;48241;48.824;10.102;2023-05-13T07:51:09;4.50;;;3.60;;
62258;SDS011;48241;48.824;10.102;2023-05-13T07:53:35;3.50;;;3.20;;
62258;SDS011;48241;48.824;10.102;2023-05-13T07:56:01;3.45;;;3.00;;
62258;SDS011;48241;48.824;10.102;2023-05-13T07:58:27;3.65;;;3.35;;
62258;SDS011;48241;48.824;10.102;2023-05-13T08:00:52;4.10;;;3.70;;
62258;SDS011;48241;48.824;10.102;2023-05-13T08:03:18;3.78;;;3.40;;
62258;SDS011;48241;48.824;10.102;2023-05-13T08:05:44;3.25;;;2.95;;
62258;SDS011;48241;48.824;10.102;2023-05-13T08:08:11;3.88;;;3.20;;
62258;SDS011;48241;48.824;10.102;2023-05-13T08:10:37;3.38;;;3.05;;
62258;SDS011;48241;48.824;10.102;2023-05-13T08:13:02;3.67;;;2.72;;
62258;SDS011;48241;48.824;10.102;2023-05-13T08:15:28;2.90;;;2.60;;
62258;SDS011;48241;48.824;10.102;2023-05-13T08:17:54;3.20;;;2.45;;
62258;SDS011;48241;48.824;10.102;2023-05-13T08:20:19;3.03;;;2.60;;
62258;SDS011;48241;48.824;10.102;2023-05-13T08:22:46;3.42;;;2.75;;
62258;SDS011;48241;48.824;10.102;2023-05-13T08:25:12;3.05;;;2.47;;
62258;SDS011;48241;48.824;10.102;2023-05-13T08:27:39;4.25;;;2.70;;
62258;SDS011;48241;48.824;10.102;2023-05-13T08:30:05;4.05;;;3.00;;
62258;SDS011;48241;48.824;10.102;2023-05-13T08:32:31;3.00;;;2.70;;
62258;SDS011;48241;48.824;10.102;2023-05-13T08:34:57;3.38;;;2.80;;
62258;SDS011;48241;48.824;10.102;2023-05-13T08:37:23;5.05;;;2.67;;
62258;SDS011;48241;48.824;10.102;2023-05-13T08:39:48;3.38;;;3.08;;
62258;SDS011;48241;48.824;10.102;2023-05-13T08:42:14;4.50;;;2.70;;
62258;SDS011;48241;48.824;10.102;2023-05-13T08:44:43;4.47;;;2.60;;
62258;SDS011;48241;48.824;10.102;2023-05-13T08:49:34;4.07;;;2.97;;
62258;SDS011;48241;48.824;10.102;2023-05-13T08:52:00;3.38;;;3.05;;
62258;SDS011;48241;48.824;10.102;2023-05-13T08:54:25;3.38;;;2.95;;
62258;SDS011;48241;48.824;10.102;2023-05-13T08:56:53;4.57;;;2.83;;
62258;SDS011;48241;48.824;10.102;2023-05-13T08:59:18;3.75;;;2.97;;
62258;SDS011;48241;48.824;10.102;2023-05-13T09:01:44;3.20;;;2.90;;
62258;SDS011;48241;48.824;10.102;2023-05-13T09:04:10;4.72;;;3.25;;
62258;SDS011;48241;48.824;10.102;2023-05-13T09:06:35;3.53;;;3.22;;
62258;SDS011;48241;48.824;10.102;2023-05-13T09:09:01;3.53;;;3.10;;
62258;SDS011;48241;48.824;10.102;2023-05-13T09:11:27;3.20;;;2.90;;
62258;SDS011;48241;48.824;10.102;2023-05-13T09:14:01;3.97;;;3.40;;
62258;SDS011;48241;48.824;10.102;2023-05-13T09:16:28;3.80;;;3.35;;
62258;SDS011;48241;48.824;10.102;2023-05-13T09:19:02;3.47;;;3.17;;
62258;SDS011;48241;48.824;10.102;2023-05-13T09:21:29;3.78;;;3.33;;
62258;SDS011;48241;48.824;10.102;2023-05-13T09:24:08;4.22;;;3.55;;
62258;SDS011;48241;48.824;10.102;2023-05-13T09:26:34;3.90;;;3.55;;
62258;SDS011;48241;48.824;10.102;2023-05-13T09:29:16;3.72;;;3.03;;
62258;SDS011;48241;48.824;10.102;2023-05-13T09:31:48;3.90;;;3.20;;
62258;SDS011;48241;48.824;10.102;2023-05-13T09:34:26;4.80;;;3.33;;
62258;SDS011;48241;48.824;10.102;2023-05-13T09:36:55;3.45;;;3.15;;
62258;SDS011;48241;48.824;10.102;2023-05-13T09:39:23;3.13;;;2.83;;
62258;SDS011;48241;48.824;10.102;2023-05-13T09:41:49;3.13;;;2.83;;
62258;SDS011;48241;48.824;10.102;2023-05-13T09:44:16;3.63;;;2.97;;
62258;SDS011;48241;48.824;10.102;2023-05-13T09:46:42;5.30;;;3.40;;
62258;SDS011;48241;48.824;10.102;2023-05-13T09:49:10;3.70;;;3.30;;
62258;SDS011;48241;48.824;10.102;2023-05-13T09:51:39;3.92;;;3.28;;
62258;SDS011;48241;48.824;10.102;2023-05-13T09:54:06;4.75;;;3.92;;
62258;SDS011;48241;48.824;10.102;2023-05-13T09:56:35;3.88;;;3.30;;
62258;SDS011;48241;48.824;10.102;2023-05-13T09:59:02;3.80;;;3.40;;
62258;SDS011;48241;48.824;10.102;2023-05-13T10:01:28;4.47;;;3.08;;
62258;SDS011;48241;48.824;10.102;2023-05-13T10:03:54;4.75;;;3.15;;
62258;SDS011;48241;48.824;10.102;2023-05-13T10:06:24;4.85;;;4.00;;
62258;SDS011;48241;48.824;10.102;2023-05-13T10:08:52;5.82;;;4.07;;
62258;SDS011;48241;48.824;10.102;2023-05-13T10:11:19;4.18;;;3.78;;
62258;SDS011;48241;48.824;10.102;2023-05-13T10:13:55;4.82;;;4.00;;
62258;SDS011;48241;48.824;10.102;2023-05-13T10:16:24;5.88;;;4.15;;
62258;SDS011;48241;48.824;10.102;2023-05-13T10:18:51;4.38;;;3.58;;
62258;SDS011;48241;48.824;10.102;2023-05-13T10:21:19;3.90;;;3.47;;
62258;SDS011;48241;48.824;10.102;2023-05-13T10:23:45;4.10;;;3.70;;
62258;SDS011;48241;48.824;10.102;2023-05-13T10:26:15;4.07;;;3.67;;
62258;SDS011;48241;48.824;10.102;2023-05-13T10:28:42;4.18;;;3.72;;
62258;SDS011;48241;48.824;10.102;2023-05-13T10:31:07;3.90;;;3.50;;
62258;SDS011;48241;48.824;10.102;2023-05-13T10:33:33;4.13;;;3.60;;
62258;SDS011;48241;48.824;10.102;2023-05-13T10:36:03;4.57;;;3.60;;
62258;SDS011;48241;48.824;10.102;2023-05-13T10:38:51;3.53;;;3.22;;
62258;SDS011;48241;48.824;10.102;2023-05-13T10:41:55;3.63;;;3.33;;
62258;SDS011;48241;48.824;10.102;2023-05-13T10:44:53;5.30;;;3.53;;
62258;SDS011;48241;48.824;10.102;2023-05-13T10:47:19;6.13;;;4.07;;
62258;SDS011;48241;48.824;10.102;2023-05-13T10:49:51;6.55;;;4.40;;
62258;SDS011;48241;48.824;10.102;2023-05-13T10:52:17;4.45;;;3.97;;
62258;SDS011;48241;48.824;10.102;2023-05-13T10:54:45;5.93;;;5.35;;
62258;SDS011;48241;48.824;10.102;2023-05-13T10:57:26;4.47;;;4.07;;
62258;SDS011;48241;48.824;10.102;2023-05-13T11:02:40;5.47;;;4.65;;
62258;SDS011;48241;48.824;10.102;2023-05-13T11:05:06;4.10;;;3.70;;
62258;SDS011;48241;48.824;10.102;2023-05-13T11:07:53;6.65;;;4.78;;
62258;SDS011;48241;48.824;10.102;2023-05-13T11:10:24;7.05;;;5.22;;
62258;SDS011;48241;48.824;10.102;2023-05-13T11:13:18;6.15;;;4.07;;
62258;SDS011;48241;48.824;10.102;2023-05-13T11:15:52;4.22;;;3.55;;
62258;SDS011;48241;48.824;10.102;2023-05-13T11:20:50;4.40;;;3.90;;
62258;SDS011;48241;48.824;10.102;2023-05-13T11:23:18;4.57;;;4.18;;
62258;SDS011;48241;48.824;10.102;2023-05-13T11:32:57;4.30;;;3.80;;
62258;SDS011;48241;48.824;10.102;2023-05-13T11:35:29;3.95;;;3.55;;
62258;SDS011;48241;48.824;10.102;2023-05-13T11:38:03;4.55;;;4.10;;
62258;SDS011;48241;48.824;10.102;2023-05-13T11:40:45;4.10;;;3.70;;
62258;SDS011;48241;48.824;10.102;2023-05-13T11:43:28;4.67;;;3.80;;
62258;SDS011;48241;48.824;10.102;2023-05-13T11:46:02;5.57;;;4.25;;
62258;SDS011;48241;48.824;10.102;2023-05-13T11:48:35;5.43;;;4.10;;
62258;SDS011;48241;48.824;10.102;2023-05-13T11:51:03;4.43;;;3.60;;
62258;SDS011;48241;48.824;10.102;2023-05-13T11:53:29;4.93;;;3.80;;
62258;SDS011;48241;48.824;10.102;2023-05-13T11:56:06;4.13;;;3.70;;
62258;SDS011;48241;48.824;10.102;2023-05-13T11:58:39;4.88;;;4.10;;
62258;SDS011;48241;48.824;10.102;2023-05-13T12:01:05;5.70;;;4.05;;
62258;SDS011;48241;48.824;10.102;2023-05-13T12:03:36;4.70;;;3.60;;
62258;SDS011;48241;48.824;10.102;2023-05-13T12:06:02;4.63;;;4.22;;
62258;SDS011;48241;48.824;10.102;2023-05-13T12:08:28;2.85;;;2.55;;
62258;SDS011;48241;48.824;10.102;2023-05-13T12:10:54;5.97;;;3.63;;
62258;SDS011;48241;48.824;10.102;2023-05-13T12:13:19;4.15;;;3.70;;
62258;SDS011;48241;48.824;10.102;2023-05-13T12:15:46;3.78;;;3.38;;
62258;SDS011;48241;48.824;10.102;2023-05-13T12:18:20;3.70;;;3.40;;
62258;SDS011;48241;48.824;10.102;2023-05-13T12:20:46;4.18;;;3.72;;
62258;SDS011;48241;48.824;10.102;2023-05-13T12:23:12;5.70;;;4.20;;
62258;SDS011;48241;48.824;10.102;2023-05-13T12:25:43;5.00;;;4.50;;
62258;SDS011;48241;48.824;10.102;2023-05-13T12:28:17;5.30;;;4.25;;
62258;SDS011;48241;48.824;10.102;2023-05-13T12:33:40;5.15;;;4.57;;
62258;SDS011;48241;48.824;10.102;2023-05-13T12:36:20;6.10;;;5.50;;
62258;SDS011;48241;48.824;10.102;2023-05-13T12:38:59;6.35;;;5.20;;
62258;SDS011;48241;48.824;10.102;2023-05-13T12:41:30;8.57;;;6.80;;
62258;SDS011;48241;48.824;10.102;2023-05-13T12:43:59;5.72;;;5.13;;
62258;SDS011;48241;48.824;10.102;2023-05-13T12:46:32;8.20;;;5.60;;
62258;SDS011;48241;48.824;10.102;2023-05-13T12:48:59;8.43;;;6.32;;
62258;SDS011;48241;48.824;10.102;2023-05-13T12:51:28;7.85;;;6.10;;
62258;SDS011;48241;48.824;10.102;2023-05-13T12:54:07;7.80;;;5.07;;
62258;SDS011;48241;48.824;10.102;2023-05-13T12:56:34;6.10;;;4.93;;
62258;SDS011;48241;48.824;10.102;2023-05-13T12:58:59;5.32;;;4.65;;
62258;SDS011;48241;48.824;10.102;2023-05-13T13:01:25;6.32;;;4.88;;
62258;SDS011;48241;48.824;10.102;2023-05-13T13:03:51;10.43;;;5.13;;
62258;SDS011;48241;48.824;10.102;2023-05-13T13:06:38;6.32;;;4.72;;
62258;SDS011;48241;48.824;10.102;2023-05-13T13:09:03;6.38;;;4.93;;
62258;SDS011;48241;48.824;10.102;2023-05-13T13:11:29;5.75;;;4.65;;
62258;SDS011;48241;48.824;10.102;2023-05-13T13:13:55;5.90;;;5.10;;
62258;SDS011;48241;48.824;10.102;2023-05-13T13:16:21;6.40;;;5.10;;
62258;SDS011;48241;48.824;10.102;2023-05-13T13:18:47;8.23;;;4.80;;
62258;SDS011;48241;48.824;10.102;2023-05-13T13:21:14;6.90;;;4.55;;
62258;SDS011;48241;48.824;10.102;2023-05-13T13:23:39;7.55;;;5.45;;
62258;SDS011;48241;48.824;10.102;2023-05-13T13:26:05;5.43;;;4.65;;
62258;SDS011;48241;48.824;10.102;2023-05-13T13:28:31;5.90;;;4.97;;
62258;SDS011;48241;48.824;10.102;2023-05-13T13:30:56;6.07;;;4.82;;
62258;SDS011;48241;48.824;10.102;2023-05-13T13:33:23;29.10;;;14.25;;
62258;SDS011;48241;48.824;10.102;2023-05-13T13:35:51;36.38;;;17.17;;
62258;SDS011;48241;48.824;10.102;2023-05-13T13:38:20;6.07;;;4.85;;
62258;SDS011;48241;48.824;10.102;2023-05-13T13:40:45;6.50;;;4.95;;
62258;SDS011;48241;48.824;10.102;2023-05-13T13:43:11;5.15;;;4.65;;
62258;SDS011;48241;48.824;10.102;2023-05-13T13:45:37;5.72;;;4.70;;
62258;SDS011;48241;48.824;10.102;2023-05-13T13:48:03;6.90;;;4.75;;
62258;SDS011;48241;48.824;10.102;2023-05-13T13:50:29;5.90;;;5.25;;
62258;SDS011;48241;48.824;10.102;2023-05-13T13:52:54;5.15;;;4.50;;
62258;SDS011;48241;48.824;10.102;2023-05-13T13:55:21;4.63;;;4.15;;
62258;SDS011;48241;48.824;10.102;2023-05-13T13:57:47;5.45;;;4.90;;
62258;SDS011;48241;48.824;10.102;2023-05-13T14:00:18;5.03;;;4.53;;
62258;SDS011;48241;48.824;10.102;2023-05-13T14:02:46;6.13;;;4.60;;
62258;SDS011;48241;48.824;10.102;2023-05-13T14:05:14;5.60;;;4.53;;
62258;SDS011;48241;48.824;10.102;2023-05-13T14:07:43;4.90;;;4.40;;
62258;SDS011;48241;48.824;10.102;2023-05-13T14:10:10;5.40;;;4.65;;
62258;SDS011;48241;48.824;10.102;2023-05-13T14:12:36;4.63;;;4.18;;
62258;SDS011;48241;48.824;10.102;2023-05-13T14:15:07;5.78;;;4.82;;
62258;SDS011;48241;48.824;10.102;2023-05-13T14:17:32;5.15;;;4.28;;
62258;SDS011;48241;48.824;10.102;2023-05-13T14:19:58;5.05;;;4.55;;
62258;SDS011;48241;48.824;10.102;2023-05-13T14:22:24;5.25;;;4.38;;
62258;SDS011;48241;48.824;10.102;2023-05-13T14:24:55;4.97;;;4.47;;
62258;SDS011;48241;48.824;10.102;2023-05-13T14:27:21;5.07;;;4.57;;
62258;SDS011;48241;48.824;10.102;2023-05-13T14:29:48;4.75;;;4.35;;
62258;SDS011;48241;48.824;10.102;2023-05-13T14:32:14;5.18;;;4.47;;
62258;SDS011;48241;48.824;10.102;2023-05-13T14:34:40;5.30;;;4.63;;
62258;SDS011;48241;48.824;10.102;2023-05-13T14:37:06;7.03;;;5.18;;
62258;SDS011;48241;48.824;10.102;2023-05-13T14:39:32;6.25;;;4.50;;
62258;SDS011;48241;48.824;10.102;2023-05-13T14:42:01;5.65;;;4.80;;
62258;SDS011;48241;48.824;10.102;2023-05-13T14:44:30;5.68;;;5.03;;
62258;SDS011;48241;48.824;10.102;2023-05-13T14:46:56;6.88;;;5.60;;
62258;SDS011;48241;48.824;10.102;2023-05-13T14:49:25;7.68;;;5.32;;
62258;SDS011;48241;48.824;10.102;2023-05-13T14:51:50;5.78;;;4.47;;
62258;SDS011;48241;48.824;10.102;2023-05-13T14:54:28;7.75;;;5.60;;
62258;SDS011;48241;48.824;10.102;2023-05-13T14:56:59;5.15;;;4.32;;